createdAt,value
2022-12-12T00:01:37.471Z,97709.41
2022-12-12T00:04:06.036Z,97745.78
2022-12-12T00:06:33.975Z,97696.06
2022-12-12T00:09:01.909Z,97748.38
2022-12-12T00:11:30.282Z,97752.56
2022-12-12T00:13:58.450Z,97751.59
2022-12-12T00:16:29.268Z,97704.81
2022-12-12T00:19:00.391Z,97712.41
2022-12-12T00:21:30.544Z,97766.06
2022-12-12T00:23:59.329Z,97739.03
2022-12-12T00:26:31.419Z,97766.69
2022-12-12T00:29:01.264Z,97776.09
2022-12-12T00:31:29.535Z,97786.16
2022-12-12T00:33:58.327Z,97742.88
2022-12-12T00:36:29.879Z,97775.47
2022-12-12T00:38:59.300Z,97789.16
2022-12-12T00:41:28.334Z,97763.38
2022-12-12T00:43:56.710Z,97788.38
2022-12-12T00:46:26.266Z,97751.66
2022-12-12T00:48:57.312Z,97738.00
2022-12-12T00:51:27.948Z,97794.91
2022-12-12T00:53:59.425Z,97791.16
2022-12-12T00:56:29.199Z,97785.66
2022-12-12T00:58:57.383Z,97778.78
2022-12-12T01:01:29.516Z,97789.31
2022-12-12T01:03:59.475Z,97788.88
2022-12-12T01:06:28.309Z,97800.00
2022-12-12T01:08:56.760Z,97749.25
2022-12-12T01:11:25.661Z,97798.56
2022-12-12T01:13:57.589Z,97785.44
2022-12-12T01:16:26.590Z,97740.50
2022-12-12T01:18:54.422Z,97784.41
2022-12-12T01:21:22.434Z,97785.66
2022-12-12T01:23:50.776Z,97780.56
2022-12-12T01:26:22.383Z,97777.34
2022-12-12T01:28:51.622Z,97779.81
2022-12-12T01:31:20.235Z,97733.53
2022-12-12T01:33:48.512Z,97770.16
2022-12-12T01:36:19.359Z,97764.00
2022-12-12T01:38:50.231Z,97768.28
2022-12-12T01:41:19.501Z,97773.16
2022-12-12T01:43:47.899Z,97765.69
2022-12-12T01:46:43.579Z,97769.41
2022-12-12T01:49:26.295Z,97781.28
2022-12-12T01:52:00.853Z,97767.53
2022-12-12T01:54:36.599Z,97726.25
2022-12-12T01:57:13.773Z,97775.13
2022-12-12T01:59:42.507Z,97717.59
2022-12-12T02:02:10.620Z,97722.41
2022-12-12T02:04:38.925Z,97752.34
2022-12-12T02:07:08.250Z,97767.66
2022-12-12T02:09:38.246Z,97731.56
2022-12-12T02:12:06.746Z,97733.31
2022-12-12T02:14:40.696Z,97713.47
2022-12-12T02:17:29.922Z,97724.28
2022-12-12T02:20:40.764Z,97760.59
2022-12-12T02:23:19.333Z,97768.50
2022-12-12T02:25:52.935Z,97766.91
2022-12-12T02:28:49.781Z,97766.75
2022-12-12T02:31:56.109Z,97768.91
2022-12-12T02:34:47.331Z,97780.78
2022-12-12T02:37:50.212Z,97779.72
2022-12-12T02:40:46.437Z,97769.84
2022-12-12T02:43:40.071Z,97727.41
2022-12-12T02:46:32.349Z,97720.31
2022-12-12T02:49:08.771Z,97753.81
2022-12-12T02:51:38.726Z,97754.44
2022-12-12T02:54:17.108Z,97733.22
2022-12-12T02:57:00.687Z,97746.75
2022-12-12T02:59:37.013Z,97708.47
2022-12-12T03:02:43.015Z,97744.06
2022-12-12T03:05:47.793Z,97740.00
2022-12-12T03:08:49.182Z,97733.31
2022-12-12T03:11:52.808Z,97718.03
2022-12-12T03:14:57.219Z,97723.25
2022-12-12T03:17:50.085Z,97687.69
2022-12-12T03:20:40.484Z,97742.38
2022-12-12T03:23:18.470Z,97746.31
2022-12-12T03:26:06.093Z,97734.69
2022-12-12T03:29:20.092Z,97750.00
2022-12-12T03:31:56.520Z,97751.84
2022-12-12T03:34:58.947Z,97737.38
2022-12-12T03:37:35.940Z,97756.03
2022-12-12T03:40:15.598Z,97752.97
2022-12-12T03:43:10.997Z,97763.00
2022-12-12T03:46:14.106Z,97765.59
2022-12-12T03:48:57.176Z,97750.38
2022-12-12T03:51:31.718Z,97744.47
2022-12-12T03:54:07.319Z,97759.75
2022-12-12T03:57:18.018Z,97753.00
2022-12-12T04:00:02.235Z,97755.69
2022-12-12T04:02:52.201Z,97751.34
2022-12-12T04:06:10.676Z,97752.38
2022-12-12T04:08:39.468Z,97746.53
2022-12-12T04:11:39.213Z,97759.31
2022-12-12T04:15:03.613Z,97762.44
2022-12-12T04:18:18.193Z,97752.78
2022-12-12T04:21:44.017Z,97726.25
2022-12-12T04:24:37.902Z,97760.16
2022-12-12T04:27:22.695Z,97771.31
2022-12-12T04:30:08.873Z,97720.13
2022-12-12T04:32:50.368Z,97778.47
2022-12-12T04:35:46.335Z,97769.31
2022-12-12T04:38:21.976Z,97761.84
2022-12-12T04:40:58.282Z,97770.25
2022-12-12T04:43:34.715Z,97771.00
2022-12-12T04:46:18.954Z,97762.47
2022-12-12T04:48:56.661Z,97761.63
2022-12-12T04:51:31.998Z,97736.53
2022-12-12T04:54:30.961Z,97751.22
2022-12-12T04:57:05.252Z,97757.16
2022-12-12T04:59:33.525Z,97754.34
2022-12-12T05:02:26.636Z,97759.00
2022-12-12T05:04:59.147Z,97754.44
2022-12-12T05:07:44.203Z,97682.34
2022-12-12T05:10:16.641Z,97760.78
2022-12-12T05:12:51.154Z,97759.84
2022-12-12T05:15:20.767Z,97714.72
2022-12-12T05:18:01.536Z,97765.78
2022-12-12T05:20:29.870Z,97765.69
2022-12-12T05:22:57.910Z,97770.03
2022-12-12T05:25:26.041Z,97734.69
2022-12-12T05:27:53.985Z,97763.38
2022-12-12T05:30:22.475Z,97726.13
2022-12-12T05:32:51.449Z,97767.75
2022-12-12T05:35:19.434Z,97753.50
2022-12-12T05:37:51.725Z,97700.84
2022-12-12T05:40:21.719Z,97767.56
2022-12-12T05:42:49.700Z,97767.97
2022-12-12T05:45:17.603Z,97763.28
2022-12-12T05:47:45.532Z,97770.34
2022-12-12T05:50:14.222Z,97740.91
2022-12-12T05:52:42.043Z,97721.44
2022-12-12T05:55:10.327Z,97780.75
2022-12-12T05:57:38.682Z,97726.03
2022-12-12T06:00:09.012Z,97770.66
2022-12-12T06:02:37.162Z,97776.91
2022-12-12T06:05:05.780Z,97779.94
2022-12-12T06:07:33.636Z,97736.66
2022-12-12T06:10:01.627Z,97766.59
2022-12-12T06:12:29.684Z,97728.22
2022-12-12T06:14:57.826Z,97787.28
2022-12-12T06:17:29.716Z,97746.09
2022-12-12T06:20:01.783Z,97777.84
2022-12-12T06:22:29.871Z,97785.53
2022-12-12T06:24:58.128Z,97791.38
2022-12-12T06:27:26.304Z,97790.53
2022-12-12T06:29:54.260Z,97792.94
2022-12-12T06:32:22.165Z,97788.78
2022-12-12T06:34:50.633Z,97791.69
2022-12-12T06:37:18.814Z,97804.91
2022-12-12T06:39:47.171Z,97800.56
2022-12-12T06:42:15.536Z,97798.13
2022-12-12T06:44:43.655Z,97798.75
2022-12-12T06:47:11.639Z,97807.94
2022-12-12T06:49:39.600Z,97771.19
2022-12-12T06:52:07.883Z,97797.31
2022-12-12T06:54:36.694Z,97808.22
2022-12-12T06:57:04.805Z,97783.78
2022-12-12T06:59:34.581Z,97760.06
2022-12-12T07:02:02.827Z,97758.28
2022-12-12T07:04:30.915Z,97798.63
2022-12-12T07:06:59.136Z,97769.41
2022-12-12T07:09:28.434Z,97802.59
2022-12-12T07:11:56.922Z,97807.97
2022-12-12T07:14:25.095Z,97821.47
2022-12-12T07:16:53.029Z,97821.72
2022-12-12T07:19:22.753Z,97827.44
2022-12-12T07:21:51.077Z,97811.25
2022-12-12T07:24:19.150Z,97757.69
2022-12-12T07:26:47.508Z,97833.75
2022-12-12T07:29:16.106Z,97824.50
2022-12-12T07:31:43.992Z,97835.56
2022-12-12T07:34:11.983Z,97832.34
2022-12-12T07:36:40.011Z,97800.09
2022-12-12T07:39:08.097Z,97830.00
2022-12-12T07:41:36.104Z,97833.88
2022-12-12T07:44:05.985Z,97837.09
2022-12-12T07:46:33.876Z,97796.53
2022-12-12T07:49:01.958Z,97795.50
2022-12-12T07:51:31.606Z,97793.13
2022-12-12T07:53:59.445Z,97828.88
2022-12-12T07:56:27.347Z,97830.09
2022-12-12T07:58:57.506Z,97831.09
2022-12-12T08:01:28.072Z,97788.78
2022-12-12T08:03:57.268Z,97828.22
2022-12-12T08:06:25.568Z,97826.97
2022-12-12T08:08:54.269Z,97831.88
2022-12-12T08:11:25.794Z,97786.34
2022-12-12T08:13:54.150Z,97828.47
2022-12-12T08:16:28.231Z,97823.47
2022-12-12T08:18:59.313Z,97782.69
2022-12-12T08:21:28.703Z,97828.84
2022-12-12T08:24:02.374Z,97832.47
2022-12-12T08:26:31.341Z,97834.16
2022-12-12T08:28:59.252Z,97809.78
2022-12-12T08:31:28.043Z,97837.25
2022-12-12T08:33:57.246Z,97800.28
2022-12-12T08:36:31.706Z,97809.53
2022-12-12T08:39:05.066Z,97821.22
2022-12-12T08:41:38.231Z,97838.06
2022-12-12T08:44:08.008Z,97806.56
2022-12-12T08:46:35.952Z,97841.75
2022-12-12T08:49:04.231Z,97834.63
2022-12-12T08:51:33.168Z,97812.63
2022-12-12T08:54:01.092Z,97799.25
2022-12-12T08:56:29.185Z,97727.13
2022-12-12T08:58:58.518Z,97794.88
2022-12-12T09:01:28.083Z,97811.81
2022-12-12T09:03:57.652Z,97806.50
2022-12-12T09:06:27.385Z,97797.97
2022-12-12T09:08:59.708Z,97832.78
2022-12-12T09:11:27.836Z,97834.34
2022-12-12T09:13:55.874Z,97836.00
2022-12-12T09:16:26.481Z,97832.19
2022-12-12T09:18:54.674Z,97833.09
2022-12-12T09:21:22.987Z,97825.44
2022-12-12T09:23:51.093Z,97825.44
2022-12-12T09:26:19.849Z,97791.09
2022-12-12T09:28:48.950Z,97785.66
2022-12-12T09:31:16.873Z,97827.31
2022-12-12T09:33:45.706Z,97826.53
2022-12-12T09:36:14.070Z,97831.63
2022-12-12T09:38:42.903Z,97826.41
2022-12-12T09:41:19.611Z,97789.09
2022-12-12T09:44:12.827Z,97840.44
2022-12-12T09:46:55.859Z,97831.19
2022-12-12T09:49:54.271Z,97838.31
2022-12-12T09:52:37.880Z,97839.53
2022-12-12T09:55:36.174Z,97863.66
2022-12-12T09:58:49.207Z,97841.19
2022-12-12T10:01:53.473Z,97795.72
2022-12-12T10:04:52.014Z,97837.72
2022-12-12T10:07:36.725Z,97841.53
2022-12-12T10:10:33.856Z,97841.56
2022-12-12T10:13:05.039Z,97828.13
2022-12-12T10:15:45.926Z,97838.22
2022-12-12T10:18:26.214Z,97838.69
2022-12-12T10:20:59.973Z,97825.63
2022-12-12T10:23:53.772Z,97791.19
2022-12-12T10:26:31.675Z,97824.22
2022-12-12T10:29:21.084Z,97828.47
2022-12-12T10:32:16.971Z,97820.38
2022-12-12T10:34:50.841Z,97835.38
2022-12-12T10:37:41.897Z,97824.81
2022-12-12T10:40:29.847Z,97827.28
2022-12-12T10:43:09.468Z,97835.25
2022-12-12T10:46:13.302Z,97839.28
2022-12-12T10:48:41.923Z,97775.41
2022-12-12T10:51:15.786Z,97812.56
2022-12-12T10:53:45.160Z,97830.88
2022-12-12T10:56:25.111Z,97835.47
2022-12-12T10:58:59.707Z,97797.72
2022-12-12T11:02:07.839Z,97832.28
2022-12-12T11:04:22.228Z,97791.78
2022-12-12T11:06:55.076Z,97792.63
2022-12-12T11:09:27.699Z,97789.19
2022-12-12T11:12:01.579Z,97830.50
2022-12-12T11:14:40.032Z,97834.75
2022-12-12T11:17:31.015Z,97784.91
2022-12-12T11:20:03.839Z,97835.72
2022-12-12T11:22:34.375Z,97827.03
2022-12-12T11:25:02.419Z,97834.44
2022-12-12T11:27:39.768Z,97832.41
2022-12-12T11:30:32.441Z,97768.78
2022-12-12T11:33:01.978Z,97832.03
2022-12-12T11:35:35.278Z,97791.91
2022-12-12T11:38:50.861Z,97833.22
2022-12-12T11:41:19.232Z,97829.88
2022-12-12T11:43:50.614Z,97827.28
2022-12-12T11:46:24.749Z,97785.75
2022-12-12T11:48:52.589Z,97837.72
2022-12-12T11:51:50.051Z,97830.34
2022-12-12T11:54:34.878Z,97799.81
2022-12-12T11:57:39.459Z,97804.25
2022-12-12T12:00:22.431Z,97833.09
2022-12-12T12:03:10.094Z,97840.69
2022-12-12T12:06:08.965Z,97841.84
2022-12-12T12:09:14.559Z,97839.16
2022-12-12T12:12:02.857Z,97843.78
2022-12-12T12:15:28.231Z,97843.78
2022-12-12T12:18:34.604Z,97819.69
2022-12-12T12:21:39.662Z,97846.50
2022-12-12T12:24:14.046Z,97838.06
2022-12-12T12:27:26.155Z,97834.53
2022-12-12T12:30:11.889Z,97838.69
2022-12-12T12:33:13.969Z,97835.09
2022-12-12T12:36:27.713Z,97841.19
2022-12-12T12:39:15.688Z,97838.31
2022-12-12T12:42:29.653Z,97843.16
2022-12-12T12:45:17.629Z,97813.41
2022-12-12T12:48:25.007Z,97846.16
2022-12-12T12:51:23.620Z,97846.28
2022-12-12T12:54:30.508Z,97848.66
2022-12-12T12:57:12.874Z,97813.84
2022-12-12T12:59:55.667Z,97862.09
2022-12-12T13:02:36.197Z,97860.78
2022-12-12T13:05:39.698Z,97861.84
2022-12-12T13:08:24.727Z,97857.09
2022-12-12T13:11:02.912Z,97849.94
2022-12-12T13:13:35.705Z,97846.66
2022-12-12T13:16:18.091Z,97822.91
2022-12-12T13:19:09.186Z,97819.22
2022-12-12T13:22:04.991Z,97833.13
2022-12-12T13:24:59.396Z,97875.63
2022-12-12T13:27:45.820Z,97827.66
2022-12-12T13:30:42.698Z,97850.81
2022-12-12T13:33:41.472Z,97863.97
2022-12-12T13:36:32.506Z,97841.41
2022-12-12T13:39:05.068Z,97880.16
2022-12-12T13:42:02.217Z,97890.00
2022-12-12T13:44:36.009Z,97882.53
2022-12-12T13:47:24.638Z,97877.44
2022-12-12T13:50:11.030Z,97875.88
2022-12-12T13:52:43.714Z,97849.00
2022-12-12T13:55:11.580Z,97894.03
2022-12-12T13:58:19.281Z,97895.13
2022-12-12T14:00:47.702Z,97867.66
2022-12-12T14:03:30.043Z,97903.88
2022-12-12T14:06:12.017Z,97889.75
2022-12-12T14:08:51.817Z,97905.78
2022-12-12T14:11:36.612Z,97895.69
2022-12-12T14:14:18.331Z,97898.91
2022-12-12T14:16:54.735Z,97910.63
2022-12-12T14:19:35.136Z,97904.38
2022-12-12T14:22:04.638Z,97868.69
2022-12-12T14:24:35.439Z,97914.09
2022-12-12T14:27:06.727Z,97867.25
2022-12-12T14:29:45.684Z,97843.03
2022-12-12T14:32:13.874Z,97913.13
2022-12-12T14:34:57.049Z,97920.16
2022-12-12T14:38:10.452Z,97911.47
2022-12-12T14:40:45.654Z,97909.19
2022-12-12T14:43:23.486Z,97924.78
2022-12-12T14:45:51.492Z,97928.09
2022-12-12T14:48:25.233Z,97924.53
2022-12-12T14:51:13.468Z,97935.22
2022-12-12T14:53:54.365Z,97930.00
2022-12-12T14:56:39.159Z,97937.94
2022-12-12T14:59:20.688Z,97943.75
2022-12-12T15:01:53.980Z,97893.47
2022-12-12T15:04:26.568Z,97922.50
2022-12-12T15:06:58.235Z,97927.13
2022-12-12T15:09:31.825Z,97926.41
2022-12-12T15:12:20.143Z,97897.41
2022-12-12T15:14:49.350Z,97936.16
2022-12-12T15:17:37.909Z,97933.66
2022-12-12T15:20:15.869Z,97934.84
2022-12-12T15:22:58.137Z,97809.13
2022-12-12T15:25:43.399Z,97933.06
2022-12-12T15:28:20.342Z,97900.09
2022-12-12T15:30:52.763Z,97900.09
2022-12-12T15:33:24.548Z,97906.22
2022-12-12T15:36:02.123Z,97939.13
2022-12-12T15:38:31.849Z,97947.06
2022-12-12T15:41:05.416Z,97942.34
2022-12-12T15:43:37.466Z,97939.72
2022-12-12T15:46:16.075Z,97892.28
2022-12-12T15:48:45.972Z,97909.38
2022-12-12T15:51:21.101Z,97851.97
2022-12-12T15:53:58.485Z,97910.22
2022-12-12T15:56:29.497Z,97916.66
2022-12-12T15:59:09.258Z,97939.38
2022-12-12T16:01:38.409Z,97947.19
2022-12-12T16:04:09.873Z,97957.28
2022-12-12T16:06:42.186Z,97960.16
2022-12-12T16:09:18.942Z,97960.38
2022-12-12T16:11:51.879Z,97974.66
2022-12-12T16:14:26.155Z,97967.66
2022-12-12T16:17:24.379Z,97921.88
2022-12-12T16:20:13.861Z,97925.41
2022-12-12T16:22:44.883Z,97971.88
2022-12-12T16:25:19.374Z,97969.44
2022-12-12T16:28:08.831Z,97967.75
2022-12-12T16:30:39.604Z,97959.91
2022-12-12T16:33:30.072Z,97957.53
2022-12-12T16:36:01.638Z,97957.91
2022-12-12T16:38:31.221Z,97939.44
2022-12-12T16:41:04.054Z,97925.19
2022-12-12T16:43:32.863Z,97926.50
2022-12-12T16:46:01.298Z,97950.63
2022-12-12T16:48:40.534Z,97929.22
2022-12-12T16:51:15.555Z,97965.13
2022-12-12T16:53:43.785Z,97972.00
2022-12-12T16:56:12.796Z,97957.72
2022-12-12T16:58:40.873Z,97974.50
2022-12-12T17:01:09.038Z,97935.06
2022-12-12T17:03:37.742Z,97981.63
2022-12-12T17:06:06.223Z,97977.94
2022-12-12T17:08:35.203Z,97962.44
2022-12-12T17:11:09.595Z,97999.81
2022-12-12T17:13:51.344Z,97993.28
2022-12-12T17:16:25.857Z,98000.78
2022-12-12T17:18:56.168Z,97999.56
2022-12-12T17:21:26.443Z,98006.94
2022-12-12T17:23:55.869Z,98008.38
2022-12-12T17:26:25.124Z,97997.78
2022-12-12T17:28:54.737Z,98003.88
2022-12-12T17:31:23.671Z,98000.44
2022-12-12T17:33:52.070Z,98011.00
2022-12-12T17:36:21.989Z,97989.59
2022-12-12T17:38:50.874Z,97982.56
2022-12-12T17:41:23.903Z,98016.38
2022-12-12T17:43:56.929Z,98022.41
2022-12-12T17:46:28.865Z,97976.06
2022-12-12T17:48:59.079Z,98015.53
2022-12-12T17:51:27.536Z,98024.09
2022-12-12T17:53:56.123Z,98017.06
2022-12-12T17:56:25.877Z,98015.41
2022-12-12T17:58:57.296Z,98023.38
2022-12-12T18:01:31.831Z,97991.06
2022-12-12T18:04:01.564Z,98036.38
2022-12-12T18:06:35.104Z,98037.31
2022-12-12T18:09:04.731Z,98035.53
2022-12-12T18:11:35.855Z,98034.81
2022-12-12T18:14:07.533Z,98035.66
2022-12-12T18:16:37.155Z,98034.81
2022-12-12T18:19:05.366Z,98044.09
2022-12-12T18:24:25.863Z,98015.50
2022-12-12T18:26:57.100Z,98034.81
2022-12-12T18:29:27.103Z,98034.94
2022-12-12T18:31:59.017Z,98043.97
2022-12-12T18:34:27.253Z,98004.59
2022-12-12T18:36:55.775Z,98032.78
2022-12-12T18:39:26.645Z,98013.84
2022-12-12T18:41:54.994Z,98011.03
2022-12-12T18:44:24.217Z,98044.47
2022-12-12T18:46:52.328Z,98044.81
2022-12-12T18:49:20.618Z,98051.47
2022-12-12T18:51:49.356Z,98057.28
2022-12-12T18:54:17.616Z,98004.31
2022-12-12T18:56:47.375Z,98062.50
2022-12-12T18:59:16.776Z,98071.69
2022-12-12T19:01:45.404Z,98064.81
2022-12-12T19:04:20.926Z,98069.31
2022-12-12T19:06:53.128Z,98077.75
2022-12-12T19:09:22.339Z,98073.56
2022-12-12T19:11:54.298Z,98026.34
2022-12-12T19:14:35.670Z,98077.41
2022-12-12T19:17:08.826Z,98030.25
2022-12-12T19:19:37.161Z,98041.31
2022-12-12T19:22:24.713Z,98074.31
2022-12-12T19:24:53.572Z,98097.28
2022-12-12T19:27:21.785Z,98068.34
2022-12-12T19:29:49.777Z,98099.66
2022-12-12T19:32:17.835Z,98107.59
2022-12-12T19:34:45.835Z,98107.59
2022-12-12T19:37:13.713Z,98114.72
2022-12-12T19:39:43.309Z,98111.16
2022-12-12T19:42:11.274Z,98126.63
2022-12-12T19:44:43.551Z,98121.41
2022-12-12T19:47:13.552Z,98134.34
2022-12-12T19:49:41.470Z,98088.06
2022-12-12T19:52:14.008Z,98116.25
2022-12-12T19:54:43.231Z,98132.56
2022-12-12T19:57:11.227Z,98119.34
2022-12-12T19:59:39.281Z,98142.56
2022-12-12T20:02:08.000Z,98103.91
2022-12-12T20:04:36.058Z,98139.97
2022-12-12T20:07:04.014Z,98111.94
2022-12-12T20:09:35.651Z,98122.91
2022-12-12T20:12:04.635Z,98145.44
2022-12-12T20:14:34.997Z,98114.56
2022-12-12T20:17:03.762Z,98161.47
2022-12-12T20:19:32.252Z,98121.47
2022-12-12T20:22:02.236Z,98168.25
2022-12-12T20:24:33.567Z,98144.69
2022-12-12T20:27:05.769Z,98165.16
2022-12-12T20:29:33.972Z,98135.16
2022-12-12T20:32:03.525Z,98169.34
2022-12-12T20:34:31.448Z,98171.00
2022-12-12T20:36:59.749Z,98175.28
2022-12-12T20:39:27.871Z,98181.13
2022-12-12T20:41:57.637Z,98179.31
2022-12-12T20:44:26.266Z,98176.09
2022-12-12T20:46:58.828Z,98187.78
2022-12-12T20:49:29.041Z,98173.84
2022-12-12T20:51:58.810Z,98184.34
2022-12-12T20:54:29.725Z,98148.25
2022-12-12T20:56:59.207Z,98182.16
2022-12-12T20:59:28.020Z,98191.13
2022-12-12T21:01:56.176Z,98075.81
2022-12-12T21:04:24.490Z,98197.91
2022-12-12T21:06:52.498Z,98202.78
2022-12-12T21:09:25.469Z,98204.81
2022-12-12T21:11:57.118Z,98199.91
2022-12-12T21:14:28.281Z,98217.75
2022-12-12T21:16:57.002Z,98220.00
2022-12-12T21:19:25.017Z,98217.16
2022-12-12T21:21:53.256Z,98217.03
2022-12-12T21:24:21.948Z,98223.00
2022-12-12T21:26:50.715Z,98185.56
2022-12-12T21:29:18.727Z,98185.81
2022-12-12T21:31:51.569Z,98220.13
2022-12-12T21:34:22.380Z,98227.50
2022-12-12T21:36:52.859Z,98234.19
2022-12-12T21:39:23.407Z,98240.47
2022-12-12T21:41:51.669Z,98212.72
2022-12-12T21:44:21.227Z,98251.44
2022-12-12T21:46:49.344Z,98253.22
2022-12-12T21:49:20.385Z,98207.22
2022-12-12T21:51:48.735Z,98261.19
2022-12-12T21:54:17.031Z,98219.25
2022-12-12T21:56:45.976Z,98216.72
2022-12-12T21:59:15.385Z,98248.44
2022-12-12T22:01:44.467Z,98266.75
2022-12-12T22:04:13.722Z,98266.84
2022-12-12T22:06:43.928Z,98245.06
2022-12-12T22:09:13.017Z,98262.22
2022-12-12T22:11:49.190Z,98265.81
2022-12-12T22:14:21.967Z,98238.59
2022-12-12T22:16:50.086Z,98267.81
2022-12-12T22:19:18.677Z,98271.47
2022-12-12T22:21:50.390Z,98265.50
2022-12-12T22:24:18.241Z,98238.53
2022-12-12T22:26:49.798Z,98267.53
2022-12-12T22:29:20.692Z,98282.16
2022-12-12T22:31:50.358Z,98280.28
2022-12-12T22:34:24.584Z,98287.16
2022-12-12T22:36:55.599Z,98282.28
2022-12-12T22:39:28.072Z,98260.56
2022-12-12T22:41:57.003Z,98290.97
2022-12-12T22:44:26.310Z,98281.91
2022-12-12T22:46:55.841Z,98285.31
2022-12-12T22:49:26.909Z,98254.44
2022-12-12T22:51:57.897Z,98295.47
2022-12-12T22:54:27.065Z,98304.97
2022-12-12T22:56:56.904Z,98256.34
2022-12-12T22:59:25.519Z,98303.31
2022-12-12T23:01:53.662Z,98303.56
2022-12-12T23:04:22.171Z,98295.19
2022-12-12T23:06:50.458Z,98315.22
2022-12-12T23:09:23.173Z,98319.81
2022-12-12T23:11:53.470Z,98305.94
2022-12-12T23:14:23.854Z,98322.56
2022-12-12T23:16:52.676Z,98319.66
2022-12-12T23:19:25.988Z,98321.00
2022-12-12T23:21:54.976Z,98328.97
2022-12-12T23:24:24.585Z,98299.41
2022-12-12T23:26:52.499Z,98327.16
2022-12-12T23:29:21.248Z,98320.28
2022-12-12T23:31:49.759Z,98280.44
2022-12-12T23:34:24.823Z,98332.22
2022-12-12T23:36:54.765Z,98294.00
2022-12-12T23:39:24.642Z,98295.91
2022-12-12T23:41:53.543Z,98316.97
2022-12-12T23:44:23.650Z,98336.94
2022-12-12T23:46:52.022Z,98363.09
2022-12-12T23:49:26.048Z,98304.34
2022-12-12T23:51:59.401Z,98356.44
2022-12-12T23:54:35.453Z,98354.56
2022-12-12T23:57:03.885Z,98341.31
2022-12-12T23:59:32.067Z,98352.50
